Time;durP1;ratioP1;P1;durP2;ratioP2;P2;SDS_P1;SDS_P2;PMS_P1;PMS_P2;Temp;Humidity;BMP_temperature;BMP_pressure;BME280_temperature;BME280_humidity;BME280_pressure;Samples;Min_cycle;Max_cycle;Signal;HPM_P1;HPM_P2
2023/09/04 00:00:40;;;;;;;3.43;3.13;;;25.00;55.50;;;;;;5009438;28;20499;-48
2023/09/04 00:03:06;;;;;;;4.10;2.73;;;25.10;55.20;;;;;;5012774;28;20225;-47
2023/09/04 00:05:34;;;;;;;3.40;2.80;;;25.00;55.00;;;;;;5014262;28;20441;-47
2023/09/04 00:08:01;;;;;;;5.00;3.47;;;25.00;55.10;;;;;;5011111;28;20186;-47
2023/09/04 00:10:26;;;;;;;3.53;3.27;;;25.00;55.10;;;;;;5008503;28;21055;-48
2023/09/04 00:12:52;;;;;;;6.40;3.70;;;25.00;55.10;;;;;;5004543;28;20526;-51
2023/09/04 00:15:18;;;;;;;4.13;2.60;;;25.00;55.40;;;;;;5007517;28;20198;-51
2023/09/04 00:17:48;;;;;;;3.53;3.23;;;24.90;55.80;;;;;;5003785;28;20201;-52
2023/09/04 00:20:14;;;;;;;3.90;2.70;;;24.90;55.70;;;;;;5011948;28;20444;-52
2023/09/04 00:22:39;;;;;;;2.70;2.47;;;25.00;55.50;;;;;;5006557;28;20491;-51
2023/09/04 00:25:05;;;;;;;4.67;3.30;;;24.90;55.60;;;;;;5015358;28;21603;-51
2023/09/04 00:27:30;;;;;;;6.60;3.47;;;24.90;55.30;;;;;;5010350;28;20204;-49
2023/09/04 00:29:56;;;;;;;3.50;3.13;;;24.90;54.90;;;;;;5010848;28;20197;-51
2023/09/04 00:32:21;;;;;;;3.37;3.07;;;24.80;54.50;;;;;;5010174;28;20708;-51
2023/09/04 00:34:47;;;;;;;3.57;3.27;;;24.80;54.80;;;;;;5007342;28;20391;-50
2023/09/04 00:37:13;;;;;;;3.17;2.80;;;24.80;54.80;;;;;;5012109;28;20213;-52
2023/09/04 00:39:38;;;;;;;3.60;3.30;;;24.80;55.00;;;;;;5010757;28;20194;-47
2023/09/04 00:42:04;;;;;;;3.47;3.17;;;24.80;55.30;;;;;;5008110;28;20737;-51
2023/09/04 00:44:30;;;;;;;3.53;3.10;;;24.80;55.20;;;;;;5007343;28;20285;-51
2023/09/04 00:46:56;;;;;;;5.10;3.23;;;24.70;55.10;;;;;;4992844;28;20196;-47
2023/09/04 00:49:21;;;;;;;3.70;2.90;;;24.80;54.90;;;;;;5010550;28;20202;-48
2023/09/04 00:51:48;;;;;;;3.57;2.60;;;24.70;55.20;;;;;;5011438;28;20546;-50
2023/09/04 00:54:14;;;;;;;3.30;3.10;;;24.80;55.90;;;;;;5011528;28;20204;-52
2023/09/04 00:56:40;;;;;;;4.90;2.67;;;24.80;55.30;;;;;;5011015;28;20579;-48
2023/09/04 00:59:15;;;;;;;3.60;2.97;;;24.80;54.90;;;;;;5007148;28;20432;-50
2023/09/04 01:01:40;;;;;;;2.90;2.70;;;24.70;55.00;;;;;;5005249;28;20503;-53
2023/09/04 01:04:06;;;;;;;4.37;3.47;;;24.70;55.30;;;;;;5013691;28;20472;-49
2023/09/04 01:06:35;;;;;;;3.80;2.43;;;24.70;55.00;;;;;;5012270;28;20198;-48
2023/09/04 01:09:01;;;;;;;3.17;2.83;;;24.70;55.00;;;;;;5007942;28;20194;-48
2023/09/04 01:11:40;;;;;;;3.90;2.80;;;24.70;55.00;;;;;;5007821;28;20448;-52
2023/09/04 01:14:12;;;;;;;2.83;2.63;;;24.60;55.60;;;;;;5013486;28;20536;-51
2023/09/04 01:16:38;;;;;;;2.83;2.57;;;24.70;55.90;;;;;;5007244;28;20492;-47
2023/09/04 01:19:04;;;;;;;2.83;2.50;;;24.70;56.10;;;;;;5010649;28;20543;-49
2023/09/04 01:21:35;;;;;;;2.90;2.70;;;24.80;56.00;;;;;;5012395;28;20480;-49
2023/09/04 01:24:01;;;;;;;3.10;2.67;;;24.80;55.50;;;;;;5007219;28;20857;-49
2023/09/04 01:26:41;;;;;;;3.87;2.87;;;24.90;55.00;;;;;;5012461;28;20464;-51
2023/09/04 01:29:21;;;;;;;3.63;3.33;;;25.00;54.40;;;;;;5008429;28;20197;-46
2023/09/04 01:31:58;;;;;;;3.77;3.47;;;24.90;54.30;;;;;;5005388;28;20549;-49
2023/09/04 01:34:31;;;;;;;5.13;3.03;;;24.90;53.90;;;;;;5009889;28;20444;-51
2023/09/04 01:37:05;;;;;;;3.20;3.00;;;24.90;54.10;;;;;;5001263;28;20449;-47
2023/09/04 01:39:34;;;;;;;3.73;3.47;;;24.80;54.20;;;;;;5001726;28;20444;-52
2023/09/04 01:41:59;;;;;;;3.83;2.90;;;24.80;54.20;;;;;;5012361;28;20484;-50
2023/09/04 01:44:32;;;;;;;3.90;3.10;;;24.60;54.30;;;;;;5008549;28;21197;-49
2023/09/04 01:47:15;;;;;;;3.80;3.30;;;24.40;54.70;;;;;;5005098;28;20190;-48
2023/09/04 01:49:52;;;;;;;3.87;3.57;;;24.10;55.30;;;;;;5009691;28;20445;-48
2023/09/04 01:52:17;;;;;;;3.50;3.30;;;23.90;55.90;;;;;;5005148;28;20479;-51
2023/09/04 01:54:43;;;;;;;4.20;3.80;;;23.70;56.50;;;;;;5008920;28;20508;-49
2023/09/04 01:57:27;;;;;;;6.70;3.80;;;23.60;57.00;;;;;;5011589;28;20209;-48
2023/09/04 01:59:55;;;;;;;3.80;3.50;;;23.50;57.10;;;;;;5007302;28;20190;-50
2023/09/04 02:02:20;;;;;;;3.67;3.37;;;23.40;57.10;;;;;;5006411;28;20500;-49
2023/09/04 02:04:46;;;;;;;3.87;3.20;;;23.40;57.60;;;;;;5002900;28;20429;-45
2023/09/04 02:07:11;;;;;;;3.40;3.10;;;23.50;58.40;;;;;;5011695;28;20201;-48
2023/09/04 02:09:37;;;;;;;4.13;3.10;;;23.50;58.20;;;;;;5006839;28;20194;-47
2023/09/04 02:12:03;;;;;;;4.43;3.13;;;23.60;57.60;;;;;;5012047;28;20190;-52
2023/09/04 02:14:29;;;;;;;3.20;2.90;;;23.70;57.20;;;;;;5005793;28;20194;-47
2023/09/04 02:16:54;;;;;;;3.20;2.90;;;23.80;56.90;;;;;;5007568;28;20988;-49
2023/09/04 02:19:20;;;;;;;3.00;2.80;;;23.80;57.00;;;;;;5008286;28;20205;-50
2023/09/04 02:21:45;;;;;;;4.07;3.67;;;23.90;57.10;;;;;;5008560;28;20247;-48
2023/09/04 02:24:11;;;;;;;2.77;2.57;;;23.90;56.70;;;;;;5000817;28;20271;-49
2023/09/04 02:26:37;;;;;;;2.73;2.53;;;23.90;56.70;;;;;;5008565;28;20638;-47
2023/09/04 02:29:03;;;;;;;5.10;2.90;;;24.00;56.40;;;;;;5001465;28;20248;-46
2023/09/04 02:31:28;;;;;;;3.60;3.30;;;24.10;56.10;;;;;;5005554;28;20886;-53
2023/09/04 02:33:54;;;;;;;3.57;3.27;;;24.00;55.60;;;;;;5002533;28;20680;-52
2023/09/04 02:36:23;;;;;;;8.30;3.80;;;24.00;55.70;;;;;;5009023;28;20190;-48
2023/09/04 02:38:48;;;;;;;3.70;3.30;;;24.00;55.60;;;;;;5011383;28;20182;-48
2023/09/04 02:41:14;;;;;;;2.93;2.73;;;23.80;55.60;;;;;;5008812;28;20511;-49
2023/09/04 02:43:40;;;;;;;3.57;3.27;;;23.70;55.80;;;;;;5006109;28;20277;-48
2023/09/04 02:46:05;;;;;;;4.83;2.83;;;23.60;56.10;;;;;;4998252;28;20724;-47
2023/09/04 02:48:31;;;;;;;4.33;3.50;;;23.60;56.40;;;;;;5007912;28;20458;-50
2023/09/04 02:51:00;;;;;;;6.90;3.80;;;23.50;56.60;;;;;;5009392;28;20225;-48
2023/09/04 02:53:28;;;;;;;3.20;2.97;;;23.50;56.70;;;;;;5008168;28;20253;-49
2023/09/04 02:55:54;;;;;;;3.70;3.17;;;23.50;56.80;;;;;;5009461;28;20865;-49
2023/09/04 02:58:25;;;;;;;3.83;3.07;;;23.50;57.30;;;;;;5009103;28;20445;-49
2023/09/04 03:00:51;;;;;;;3.80;3.50;;;23.60;56.80;;;;;;5003192;28;20612;-47
2023/09/04 03:03:22;;;;;;;3.80;2.80;;;23.70;56.40;;;;;;5010840;28;20485;-50
2023/09/04 03:05:53;;;;;;;2.83;2.63;;;23.70;56.10;;;;;;5005259;28;20445;-47
2023/09/04 03:08:25;;;;;;;3.63;2.97;;;23.70;56.00;;;;;;5004674;28;20480;-48
2023/09/04 03:10:50;;;;;;;3.90;3.60;;;23.70;56.00;;;;;;5007651;28;20445;-46
2023/09/04 03:13:16;;;;;;;3.07;2.87;;;23.70;55.70;;;;;;5008294;28;20531;-48
2023/09/04 03:15:41;;;;;;;4.37;3.60;;;23.70;55.90;;;;;;5011588;28;20193;-46
2023/09/04 03:18:09;;;;;;;3.87;3.13;;;23.60;55.90;;;;;;5009612;28;20197;-46
2023/09/04 03:20:37;;;;;;;3.50;3.30;;;23.60;55.80;;;;;;5007584;28;20587;-46
2023/09/04 03:23:03;;;;;;;5.30;3.07;;;23.50;56.20;;;;;;4998869;28;20556;-46
2023/09/04 03:25:29;;;;;;;7.00;3.30;;;23.40;56.70;;;;;;5004771;28;20448;-51
2023/09/04 03:28:00;;;;;;;2.87;2.63;;;23.40;56.90;;;;;;5000787;28;20281;-46
2023/09/04 03:30:25;;;;;;;3.20;2.90;;;23.40;57.10;;;;;;5007494;28;20441;-46
2023/09/04 03:32:51;;;;;;;3.87;3.03;;;23.50;57.20;;;;;;5001145;28;20920;-47
2023/09/04 03:35:17;;;;;;;3.90;3.50;;;23.60;57.00;;;;;;5009995;28;20285;-46
2023/09/04 03:37:43;;;;;;;2.80;2.60;;;23.60;56.60;;;;;;5009880;28;20197;-47
2023/09/04 03:40:23;;;;;;;6.13;3.57;;;23.60;56.40;;;;;;5004324;28;20680;-50
2023/09/04 03:42:49;;;;;;;6.17;3.50;;;23.60;56.30;;;;;;5007809;28;20221;-46
2023/09/04 03:45:14;;;;;;;3.70;2.90;;;23.70;56.30;;;;;;5005782;28;21040;-46
2023/09/04 03:47:41;;;;;;;8.13;3.17;;;23.60;55.60;;;;;;5006184;28;20515;-48
2023/09/04 03:50:10;;;;;;;3.77;3.47;;;23.60;56.00;;;;;;5006651;28;20266;-46
2023/09/04 03:52:38;;;;;;;6.30;4.20;;;23.50;55.60;;;;;;5005264;28;20485;-47
2023/09/04 03:55:04;;;;;;;4.13;2.97;;;23.40;55.50;;;;;;4999768;28;20805;-47
2023/09/04 03:57:30;;;;;;;4.67;2.97;;;23.40;56.00;;;;;;5004003;28;20472;-46
2023/09/04 03:59:58;;;;;;;3.80;3.50;;;23.50;56.90;;;;;;5005960;28;20440;-46
2023/09/04 04:02:24;;;;;;;6.10;3.63;;;23.50;56.70;;;;;;5004284;28;20321;-46
2023/09/04 04:04:52;;;;;;;3.67;2.70;;;23.50;55.80;;;;;;5001121;28;21004;-46
2023/09/04 04:07:18;;;;;;;3.07;2.77;;;23.50;56.20;;;;;;5007576;28;20190;-47
2023/09/04 04:09:44;;;;;;;5.20;3.03;;;23.50;56.80;;;;;;5006405;28;20444;-49
2023/09/04 04:12:10;;;;;;;3.10;2.90;;;23.60;56.50;;;;;;5008091;28;20561;-46
2023/09/04 04:14:36;;;;;;;5.83;3.40;;;23.60;57.00;;;;;;5003699;28;20449;-46
2023/09/04 04:17:01;;;;;;;4.10;3.80;;;23.60;56.20;;;;;;5000964;28;20449;-46
2023/09/04 04:19:28;;;;;;;6.07;3.33;;;23.60;56.10;;;;;;5009221;28;20198;-49
2023/09/04 04:21:53;;;;;;;3.87;3.57;;;23.60;55.60;;;;;;5013655;28;20230;-46
2023/09/04 04:24:20;;;;;;;4.67;3.27;;;23.60;55.90;;;;;;5016286;28;20421;-46
2023/09/04 04:26:46;;;;;;;3.77;3.43;;;23.60;55.60;;;;;;5011279;28;20565;-51
2023/09/04 04:29:11;;;;;;;4.00;3.60;;;23.60;55.30;;;;;;5007447;28;20440;-47
2023/09/04 04:31:38;;;;;;;5.60;3.97;;;23.60;55.00;;;;;;5005036;28;20198;-46
2023/09/04 04:34:03;;;;;;;3.73;3.03;;;23.50;55.10;;;;;;5012362;28;20313;-48
2023/09/04 04:36:30;;;;;;;4.67;4.37;;;23.50;55.20;;;;;;5010613;28;20579;-47
2023/09/04 04:38:55;;;;;;;5.00;3.00;;;23.50;55.80;;;;;;5007368;28;20276;-47
2023/09/04 04:41:21;;;;;;;7.00;3.90;;;23.40;55.00;;;;;;5005431;28;20492;-46
2023/09/04 04:43:46;;;;;;;3.13;2.83;;;23.30;54.90;;;;;;5008208;28;20198;-46
2023/09/04 04:46:15;;;;;;;4.17;3.53;;;23.30;55.20;;;;;;5004552;28;20201;-47
2023/09/04 04:48:40;;;;;;;4.50;3.37;;;23.30;55.90;;;;;;5008450;28;20198;-47
2023/09/04 04:51:07;;;;;;;4.50;3.20;;;23.30;55.80;;;;;;5009407;28;20518;-49
2023/09/04 04:53:34;;;;;;;3.90;3.20;;;23.30;56.00;;;;;;5010542;28;20190;-46
2023/09/04 04:56:00;;;;;;;3.10;2.73;;;23.30;55.70;;;;;;5010326;28;20441;-49
2023/09/04 04:58:25;;;;;;;3.40;3.10;;;23.30;55.50;;;;;;5001075;28;20456;-48
2023/09/04 05:00:51;;;;;;;3.03;2.83;;;23.30;55.00;;;;;;5010003;28;20194;-47
2023/09/04 05:03:17;;;;;;;3.63;3.33;;;23.30;54.60;;;;;;5010516;28;20236;-46
2023/09/04 05:05:46;;;;;;;3.97;2.90;;;23.30;54.90;;;;;;5006391;28;20198;-47
2023/09/04 05:08:12;;;;;;;4.17;2.93;;;23.20;55.60;;;;;;5011643;28;20186;-47
2023/09/04 05:10:38;;;;;;;3.20;2.90;;;23.20;55.90;;;;;;5013426;28;20437;-51
2023/09/04 05:13:03;;;;;;;3.90;3.30;;;23.20;55.70;;;;;;5012412;28;20244;-47
2023/09/04 05:15:29;;;;;;;4.03;3.73;;;23.10;55.20;;;;;;5013839;28;20205;-49
2023/09/04 05:17:55;;;;;;;3.30;3.00;;;23.10;55.30;;;;;;5005723;28;20197;-47
2023/09/04 05:20:21;;;;;;;3.50;3.30;;;23.00;56.00;;;;;;5011666;28;20440;-47
2023/09/04 05:22:46;;;;;;;7.20;3.50;;;23.00;56.70;;;;;;5007515;28;20218;-48
2023/09/04 05:25:12;;;;;;;5.53;3.50;;;23.10;57.30;;;;;;5006310;28;20499;-46
2023/09/04 05:27:38;;;;;;;4.90;3.53;;;23.20;57.30;;;;;;5009771;28;20200;-47
2023/09/04 05:30:04;;;;;;;4.10;3.70;;;23.30;56.50;;;;;;5009324;28;20204;-47
2023/09/04 05:32:30;;;;;;;5.77;3.63;;;23.40;55.70;;;;;;5004021;28;20232;-47
2023/09/04 05:34:56;;;;;;;4.00;3.67;;;23.40;55.80;;;;;;5008730;28;20826;-49
2023/09/04 05:37:22;;;;;;;3.93;3.63;;;23.40;55.90;;;;;;5007167;28;20206;-47
2023/09/04 05:39:48;;;;;;;4.40;4.00;;;23.50;56.00;;;;;;5005692;28;20202;-47
2023/09/04 05:42:13;;;;;;;5.83;3.97;;;23.50;55.80;;;;;;5006577;28;20489;-47
2023/09/04 05:44:39;;;;;;;4.00;3.70;;;23.60;55.60;;;;;;5008434;28;20447;-47
2023/09/04 05:47:05;;;;;;;4.00;3.50;;;23.70;55.50;;;;;;5010393;28;20218;-47
2023/09/04 05:49:30;;;;;;;4.67;4.27;;;23.70;55.20;;;;;;5007477;28;20194;-47
2023/09/04 05:51:56;;;;;;;3.70;3.40;;;23.70;54.90;;;;;;5006791;28;20229;-48
2023/09/04 05:54:23;;;;;;;4.03;3.37;;;23.70;54.70;;;;;;5012842;28;20281;-47
2023/09/04 05:56:49;;;;;;;4.17;3.77;;;23.80;55.10;;;;;;5010437;28;20670;-48
2023/09/04 05:59:15;;;;;;;4.40;3.50;;;23.90;54.90;;;;;;5009759;28;20441;-51
2023/09/04 06:01:40;;;;;;;4.40;4.00;;;23.90;54.90;;;;;;5008922;28;20854;-48
2023/09/04 06:04:06;;;;;;;5.30;4.10;;;23.90;54.40;;;;;;5010533;28;20208;-48
2023/09/04 06:06:31;;;;;;;3.93;3.40;;;23.90;54.90;;;;;;5009467;28;20204;-50
2023/09/04 06:08:57;;;;;;;4.37;4.00;;;23.90;54.80;;;;;;5013435;28;20194;-50
2023/09/04 06:11:23;;;;;;;4.57;4.20;;;24.00;54.80;;;;;;5011494;28;20198;-48
2023/09/04 06:13:51;;;;;;;4.00;3.70;;;23.90;55.00;;;;;;5002214;28;20244;-47
2023/09/04 06:16:19;;;;;;;4.50;4.00;;;23.90;55.00;;;;;;5010983;28;20638;-51
2023/09/04 06:18:45;;;;;;;4.77;4.37;;;23.90;55.30;;;;;;5011051;28;20451;-48
2023/09/04 06:21:11;;;;;;;4.00;3.70;;;23.70;55.10;;;;;;5011973;28;20431;-50
2023/09/04 06:23:36;;;;;;;4.57;3.80;;;23.60;55.90;;;;;;5010133;28;20226;-47
2023/09/04 06:26:02;;;;;;;4.60;4.20;;;23.70;55.90;;;;;;5005379;28;21837;-46
2023/09/04 06:28:28;;;;;;;4.57;4.20;;;23.90;55.80;;;;;;5006022;28;20264;-47
2023/09/04 06:30:55;;;;;;;4.27;3.87;;;24.00;55.40;;;;;;4998788;28;20945;-47
2023/09/04 06:33:21;;;;;;;3.90;3.60;;;24.00;55.40;;;;;;5001305;28;20440;-46
2023/09/04 06:35:47;;;;;;;4.90;4.40;;;24.00;55.50;;;;;;5010772;28;20437;-47
2023/09/04 06:38:14;;;;;;;5.70;4.60;;;24.10;55.60;;;;;;5005116;28;20449;-46
2023/09/04 06:40:40;;;;;;;5.40;3.33;;;24.00;56.40;;;;;;5008407;28;20189;-46
2023/09/04 06:43:05;;;;;;;4.03;3.23;;;24.10;55.80;;;;;;5007167;28;20909;-46
2023/09/04 06:45:31;;;;;;;6.20;3.50;;;24.20;55.80;;;;;;5009111;28;20194;-48
2023/09/04 06:47:57;;;;;;;3.67;3.33;;;24.30;55.60;;;;;;5008111;28;20240;-47
2023/09/04 06:50:22;;;;;;;3.90;3.60;;;24.40;55.60;;;;;;5004511;28;20200;-46
2023/09/04 06:52:48;;;;;;;3.83;3.53;;;24.50;55.10;;;;;;5011454;28;20186;-47
2023/09/04 06:55:13;;;;;;;8.40;3.47;;;24.50;55.40;;;;;;5009400;28;20281;-46
2023/09/04 06:57:39;;;;;;;6.60;3.73;;;24.60;55.00;;;;;;5006454;28;20202;-46
2023/09/04 07:00:10;;;;;;;3.37;3.07;;;24.70;55.20;;;;;;5008611;28;20189;-46
2023/09/04 07:02:36;;;;;;;4.50;4.20;;;24.90;54.90;;;;;;5011444;28;20221;-46
2023/09/04 07:05:02;;;;;;;3.83;3.53;;;24.60;53.90;;;;;;5009333;28;20524;-46
2023/09/04 07:07:28;;;;;;;4.17;3.77;;;24.60;54.80;;;;;;5010254;28;20886;-47
2023/09/04 07:09:54;;;;;;;4.60;4.20;;;24.70;54.80;;;;;;5011223;28;20479;-46
2023/09/04 07:12:19;;;;;;;4.17;3.77;;;24.80;54.10;;;;;;5005919;28;20629;-48
2023/09/04 07:14:45;;;;;;;4.13;3.83;;;24.90;54.30;;;;;;5006864;28;20593;-47
2023/09/04 07:17:10;;;;;;;3.90;3.60;;;25.00;53.60;;;;;;5011311;28;20227;-48
2023/09/04 07:19:37;;;;;;;4.03;3.73;;;25.10;53.90;;;;;;5010376;28;20202;-46
2023/09/04 07:22:03;;;;;;;4.20;3.80;;;25.00;54.00;;;;;;4991263;28;20225;-47
2023/09/04 07:24:28;;;;;;;3.70;3.40;;;25.10;53.70;;;;;;5012000;28;20809;-47
2023/09/04 07:26:54;;;;;;;3.90;3.60;;;25.30;54.30;;;;;;5004396;28;20201;-47
2023/09/04 07:29:20;;;;;;;3.97;3.67;;;25.40;53.20;;;;;;5010856;28;20210;-47
2023/09/04 07:31:45;;;;;;;4.33;4.03;;;25.50;53.00;;;;;;5009232;28;20673;-48
2023/09/04 07:34:11;;;;;;;3.70;3.40;;;25.40;52.60;;;;;;5011693;28;20638;-49
2023/09/04 07:36:36;;;;;;;4.07;3.67;;;25.60;53.00;;;;;;5007353;28;21103;-47
2023/09/04 07:39:02;;;;;;;6.20;3.97;;;25.70;52.80;;;;;;5006567;28;20244;-46
2023/09/04 07:41:28;;;;;;;4.63;3.50;;;25.80;52.00;;;;;;5008603;28;20178;-46
2023/09/04 07:43:53;;;;;;;4.00;3.70;;;25.80;52.30;;;;;;5008494;28;20194;-46
2023/09/04 07:46:19;;;;;;;4.50;4.10;;;25.90;52.40;;;;;;5008799;28;20708;-46
2023/09/04 07:48:45;;;;;;;4.40;4.07;;;26.00;52.30;;;;;;5004549;28;20194;-47
2023/09/04 07:51:10;;;;;;;4.40;4.00;;;25.90;52.10;;;;;;5008526;28;20363;-47
2023/09/04 07:53:36;;;;;;;4.10;3.80;;;25.90;52.00;;;;;;5008821;28;20198;-48
2023/09/04 07:56:01;;;;;;;3.60;3.30;;;26.10;52.20;;;;;;5012432;28;20546;-49
2023/09/04 07:58:27;;;;;;;4.60;4.13;;;26.30;52.10;;;;;;5013111;28;20190;-46
2023/09/04 08:00:53;;;;;;;4.30;4.00;;;26.50;51.30;;;;;;5012700;28;20213;-46
2023/09/04 08:03:19;;;;;;;4.37;3.97;;;26.00;51.50;;;;;;5014945;28;20229;-50
2023/09/04 08:05:45;;;;;;;4.50;4.20;;;26.10;51.80;;;;;;5009570;28;20559;-46
2023/09/04 08:08:11;;;;;;;4.10;3.70;;;26.40;51.50;;;;;;5014972;28;20997;-46
2023/09/04 08:10:45;;;;;;;4.30;3.90;;;26.50;50.60;;;;;;5015058;28;20532;-46
2023/09/04 08:13:13;;;;;;;3.97;3.67;;;26.30;51.00;;;;;;5013852;28;20285;-47
2023/09/04 08:15:38;;;;;;;9.60;4.33;;;26.50;50.60;;;;;;5002511;28;20450;-49
2023/09/04 08:18:06;;;;;;;3.87;3.60;;;26.70;50.40;;;;;;5007635;28;20441;-47
2023/09/04 08:20:31;;;;;;;4.27;3.87;;;26.80;49.80;;;;;;5003996;28;20247;-47
2023/09/04 08:22:57;;;;;;;6.30;3.97;;;26.90;50.10;;;;;;5013184;28;20893;-46
2023/09/04 08:25:23;;;;;;;4.50;4.20;;;27.10;49.30;;;;;;5011258;28;20237;-47
2023/09/04 08:27:48;;;;;;;4.30;3.90;;;27.20;49.10;;;;;;5013407;28;20661;-50
2023/09/04 08:30:14;;;;;;;4.30;3.50;;;27.20;48.50;;;;;;5010709;28;20194;-48
2023/09/04 08:32:39;;;;;;;4.90;3.47;;;27.20;49.30;;;;;;5012461;28;20638;-49
2023/09/04 08:35:05;;;;;;;4.07;3.77;;;27.40;49.10;;;;;;5010425;28;20194;-50
2023/09/04 08:37:31;;;;;;;4.40;4.10;;;27.20;49.40;;;;;;5013045;28;20202;-49
2023/09/04 08:39:56;;;;;;;4.00;3.70;;;27.20;48.60;;;;;;5010407;28;20445;-46
2023/09/04 08:42:23;;;;;;;4.00;3.70;;;27.20;48.70;;;;;;5011097;28;20284;-47
2023/09/04 08:44:50;;;;;;;4.10;3.70;;;27.30;48.70;;;;;;5007878;28;20601;-51
2023/09/04 08:47:19;;;;;;;4.47;4.07;;;27.20;48.20;;;;;;5012500;28;20456;-49
2023/09/04 08:49:45;;;;;;;4.13;3.83;;;27.40;48.30;;;;;;5010212;28;20447;-50
2023/09/04 08:52:12;;;;;;;4.27;3.97;;;27.60;48.10;;;;;;5011875;28;20488;-51
2023/09/04 08:54:37;;;;;;;4.50;4.10;;;27.80;47.60;;;;;;5009398;28;20866;-46
2023/09/04 08:57:04;;;;;;;4.90;4.30;;;27.80;47.30;;;;;;5015207;28;20520;-49
2023/09/04 08:59:29;;;;;;;3.77;3.57;;;27.80;46.90;;;;;;5013355;28;20240;-49
2023/09/04 09:01:56;;;;;;;4.17;3.87;;;27.90;46.50;;;;;;5012544;28;20505;-49
2023/09/04 09:04:22;;;;;;;5.03;3.80;;;27.90;46.50;;;;;;5006948;28;20201;-47
2023/09/04 09:06:50;;;;;;;4.13;3.83;;;27.90;46.60;;;;;;5011513;28;20940;-48
2023/09/04 09:09:16;;;;;;;4.13;3.80;;;27.90;46.50;;;;;;5010986;28;20781;-47
2023/09/04 09:11:42;;;;;;;4.50;4.10;;;28.10;46.40;;;;;;5013457;28;20480;-47
2023/09/04 09:14:09;;;;;;;4.23;3.93;;;28.10;46.70;;;;;;5011544;28;20942;-50
2023/09/04 09:16:34;;;;;;;4.03;3.73;;;28.40;46.20;;;;;;5001163;28;20437;-47
2023/09/04 09:19:01;;;;;;;10.00;4.30;;;28.70;46.50;;;;;;5003100;28;20445;-47
2023/09/04 09:21:29;;;;;;;6.27;3.60;;;28.90;45.40;;;;;;5011176;28;20198;-48
2023/09/04 09:24:16;;;;;;;3.93;3.63;;;28.80;45.10;;;;;;5014203;28;20920;-47
2023/09/04 09:26:49;;;;;;;3.90;3.70;;;28.80;45.30;;;;;;5013193;28;20437;-47
2023/09/04 09:29:16;;;;;;;4.40;4.00;;;28.80;45.40;;;;;;5008664;28;20464;-46
2023/09/04 09:31:45;;;;;;;3.90;3.60;;;28.90;45.60;;;;;;4994430;28;20452;-47
2023/09/04 09:34:11;;;;;;;4.10;3.77;;;28.70;45.10;;;;;;5011022;28;20459;-49
2023/09/04 09:36:37;;;;;;;3.60;3.33;;;28.90;44.50;;;;;;5013678;28;20796;-48
2023/09/04 09:39:04;;;;;;;3.80;3.50;;;29.20;44.90;;;;;;5011524;28;20426;-46
2023/09/04 09:41:31;;;;;;;4.60;3.67;;;29.40;43.80;;;;;;5009772;28;20599;-44
2023/09/04 09:44:00;;;;;;;3.93;3.63;;;29.50;43.30;;;;;;5003861;28;20445;-48
2023/09/04 09:46:28;;;;;;;3.77;3.57;;;29.80;43.20;;;;;;5009492;28;20457;-45
2023/09/04 09:48:54;;;;;;;4.00;3.70;;;29.80;43.10;;;;;;5009277;28;20436;-46
2023/09/04 09:51:20;;;;;;;3.40;3.20;;;30.00;42.80;;;;;;5005837;28;21079;-47
2023/09/04 09:53:51;;;;;;;4.80;3.80;;;30.10;42.70;;;;;;5001048;28;20883;-44
2023/09/04 09:56:18;;;;;;;4.20;3.30;;;30.00;42.20;;;;;;4999346;28;20450;-46
2023/09/04 09:58:46;;;;;;;4.13;3.73;;;30.30;42.60;;;;;;5002164;28;20498;-46
2023/09/04 10:01:12;;;;;;;4.10;3.80;;;30.40;41.80;;;;;;5009138;28;20449;-47
2023/09/04 10:03:38;;;;;;;3.53;3.33;;;30.20;42.10;;;;;;5006662;28;20571;-48
2023/09/04 10:06:05;;;;;;;4.13;3.83;;;30.40;42.20;;;;;;5000549;28;20547;-47
2023/09/04 10:08:40;;;;;;;4.10;3.80;;;30.50;41.20;;;;;;5006146;28;20438;-48
2023/09/04 10:11:18;;;;;;;5.83;3.70;;;30.70;40.70;;;;;;5008267;28;20445;-46
2023/09/04 10:14:01;;;;;;;4.33;3.63;;;30.60;40.80;;;;;;5008998;28;20445;-47
2023/09/04 10:16:40;;;;;;;3.93;3.60;;;30.60;40.10;;;;;;5002836;28;20491;-50
2023/09/04 10:19:10;;;;;;;4.07;3.53;;;31.10;40.20;;;;;;5010432;28;20480;-47
2023/09/04 10:21:45;;;;;;;4.20;3.90;;;31.40;39.00;;;;;;5010642;28;20819;-47
2023/09/04 10:24:15;;;;;;;3.97;3.67;;;31.70;38.40;;;;;;5004985;28;20436;-48
2023/09/04 10:26:53;;;;;;;3.70;3.43;;;31.50;37.90;;;;;;5009263;28;20441;-48
2023/09/04 10:29:24;;;;;;;3.63;3.33;;;31.40;38.20;;;;;;5010868;28;21017;-47
2023/09/04 10:31:51;;;;;;;4.07;3.70;;;31.30;37.10;;;;;;5008137;28;20814;-50
2023/09/04 10:34:17;;;;;;;3.97;3.63;;;31.50;37.60;;;;;;5006518;28;20532;-48
2023/09/04 10:36:43;;;;;;;3.83;3.53;;;31.70;36.40;;;;;;5007228;28;20524;-47
2023/09/04 10:39:08;;;;;;;3.83;3.50;;;31.70;36.10;;;;;;5012029;28;20198;-49
2023/09/04 10:41:35;;;;;;;5.40;3.70;;;32.00;35.30;;;;;;5009757;28;20448;-48
2023/09/04 10:44:01;;;;;;;3.67;3.37;;;32.00;34.50;;;;;;5003189;28;20665;-48
2023/09/04 10:46:27;;;;;;;3.47;3.27;;;32.00;33.90;;;;;;5006644;28;20540;-50
2023/09/04 10:48:53;;;;;;;3.67;3.43;;;32.10;33.90;;;;;;5004496;28;20194;-46
2023/09/04 10:51:36;;;;;;;3.40;3.20;;;32.40;34.60;;;;;;5006845;28;20477;-47
2023/09/04 10:54:14;;;;;;;3.47;3.23;;;32.60;34.70;;;;;;5006960;28;20206;-45
2023/09/04 10:56:59;;;;;;;4.00;3.70;;;32.80;35.30;;;;;;5009283;28;20444;-46
2023/09/04 10:59:26;;;;;;;4.20;3.90;;;33.00;32.90;;;;;;5007971;28;21117;-48
2023/09/04 11:01:52;;;;;;;4.27;3.97;;;32.70;34.00;;;;;;5007833;28;20496;-48
2023/09/04 11:04:36;;;;;;;4.00;3.70;;;33.00;33.00;;;;;;5008760;28;20840;-48
2023/09/04 11:07:19;;;;;;;4.00;3.70;;;33.00;33.10;;;;;;5008294;28;20198;-45
2023/09/04 11:09:46;;;;;;;4.73;3.70;;;33.50;32.20;;;;;;5007177;28;20466;-45
2023/09/04 11:12:18;;;;;;;4.60;3.23;;;33.60;31.50;;;;;;5000185;28;20792;-44
2023/09/04 11:15:16;;;;;;;4.13;3.77;;;33.70;30.80;;;;;;5005137;28;20575;-44
2023/09/04 11:17:45;;;;;;;3.90;3.10;;;33.80;30.70;;;;;;5008981;28;20498;-46
2023/09/04 11:20:14;;;;;;;3.43;3.17;;;33.90;30.60;;;;;;5009812;28;20448;-46
2023/09/04 11:22:47;;;;;;;3.40;3.10;;;34.00;31.20;;;;;;5006346;28;20963;-45
2023/09/04 11:25:18;;;;;;;3.40;3.20;;;34.10;30.30;;;;;;5003911;28;20448;-44
2023/09/04 11:27:44;;;;;;;3.57;3.30;;;34.00;29.30;;;;;;5008810;28;20814;-45
2023/09/04 11:30:11;;;;;;;3.87;3.57;;;33.70;30.60;;;;;;5006930;28;20441;-44
2023/09/04 11:32:38;;;;;;;3.70;3.40;;;33.90;30.40;;;;;;5011786;28;20471;-47
2023/09/04 11:35:04;;;;;;;3.83;3.60;;;34.10;29.90;;;;;;5007609;28;20441;-44
2023/09/04 11:37:32;;;;;;;3.40;3.10;;;34.20;28.80;;;;;;5010178;28;20445;-44
2023/09/04 11:40:00;;;;;;;3.63;3.37;;;34.50;29.10;;;;;;5011962;28;20771;-44
2023/09/04 11:42:29;;;;;;;3.50;3.27;;;34.10;28.90;;;;;;5008978;28;20550;-45
2023/09/04 11:44:55;;;;;;;3.00;2.80;;;33.90;29.90;;;;;;4998294;28;20902;-45
2023/09/04 11:47:22;;;;;;;3.57;3.27;;;34.10;29.70;;;;;;5001397;28;20446;-46
2023/09/04 11:49:49;;;;;;;3.87;3.57;;;34.50;28.60;;;;;;5009155;28;20185;-45
2023/09/04 11:52:19;;;;;;;3.20;2.90;;;34.60;28.00;;;;;;5007030;28;20472;-44
2023/09/04 11:54:45;;;;;;;3.00;2.80;;;34.90;28.50;;;;;;5004124;28;20444;-46
2023/09/04 11:57:11;;;;;;;5.10;3.33;;;35.10;29.00;;;;;;5007085;28;20463;-45
2023/09/04 11:59:38;;;;;;;3.13;2.93;;;35.20;27.50;;;;;;5003317;28;20445;-45
2023/09/04 12:02:05;;;;;;;3.30;3.10;;;35.30;27.80;;;;;;5007478;28;20493;-45
2023/09/04 12:04:34;;;;;;;3.27;2.97;;;35.40;27.60;;;;;;5000939;28;20446;-46
2023/09/04 12:07:07;;;;;;;5.23;2.87;;;35.30;26.70;;;;;;5003779;28;20445;-46
2023/09/04 12:09:35;;;;;;;3.07;2.87;;;35.30;26.20;;;;;;5010421;28;20822;-48
2023/09/04 12:12:04;;;;;;;3.20;3.00;;;35.30;26.60;;;;;;5000347;28;20441;-49
2023/09/04 12:14:33;;;;;;;3.50;3.30;;;35.40;26.70;;;;;;5005509;28;20468;-49
2023/09/04 12:16:59;;;;;;;3.50;3.20;;;35.50;26.20;;;;;;5000190;28;20468;-46
2023/09/04 12:19:25;;;;;;;3.13;2.93;;;35.40;26.30;;;;;;5006237;28;20502;-46
2023/09/04 12:21:51;;;;;;;3.70;3.40;;;35.20;26.10;;;;;;5011013;28;20940;-46
2023/09/04 12:24:18;;;;;;;3.23;3.03;;;35.50;26.20;;;;;;5008032;28;20491;-50
2023/09/04 12:26:47;;;;;;;3.07;2.87;;;35.40;25.30;;;;;;5008871;28;20202;-47
2023/09/04 12:29:13;;;;;;;4.43;2.90;;;35.70;25.50;;;;;;5001775;28;21081;-49
2023/09/04 12:31:38;;;;;;;3.03;2.77;;;35.60;26.20;;;;;;5003721;28;20473;-48
2023/09/04 12:34:04;;;;;;;3.70;3.40;;;35.50;25.80;;;;;;5006912;28;20276;-46
2023/09/04 12:36:33;;;;;;;3.40;3.20;;;35.60;25.20;;;;;;5005105;28;20197;-48
2023/09/04 12:38:59;;;;;;;3.60;3.30;;;35.70;26.10;;;;;;5002200;28;20654;-47
2023/09/04 12:41:25;;;;;;;3.23;2.93;;;35.50;26.60;;;;;;5013460;28;20506;-46
2023/09/04 12:43:51;;;;;;;3.80;3.40;;;35.60;25.40;;;;;;5004575;28;20308;-48
2023/09/04 12:46:16;;;;;;;3.70;3.40;;;35.90;25.80;;;;;;5005636;28;20528;-46
2023/09/04 12:48:42;;;;;;;3.47;3.17;;;36.20;26.00;;;;;;5009852;28;20198;-45